Nearby METAR Reports

 

KAIK - Aiken, South Carolina, USA
Distance from station: NNE 7mi, 10km
Updated: Wed, 12-Jun-2024 7:15pm EDT
NOT Current
Clear
Clear
 Wind from E
Wind: E 9 km/h
Temperature: 82°F , 28°C
Heat Index: 82°F , 28°C
Dew Point: 61°F , 16°C
Humidity: 48%
Clouds: Clear
Visibility: 16 km
2024/06/12 23:15 KAIK 122315Z AUTO 09005KT 10SM CLR 28/16 RMK AO2 T02790156
KDNL - Augusta/Daniel, Georgia, USA
Distance from station: WSW 18mi, 29km
Updated: Wed, 12-Jun-2024 7:53pm EDT
Clear
Clear
 Wind from E
Wind: E 6 km/h
Temperature: 86°F , 30°C
Dew Point: 57°F , 14°C
Humidity: 38%
Barometer: 29.97 inHg , 1014.9 hPa
Clouds: Clear
Visibility: 16 km
2024/06/12 23:53 KDNL 122353Z AUTO 10003KT 10SM CLR 30/14 A2997 RMK AO2 SLP142 T03000144 10328 20300 53003
 
KAGS - Augusta/Bush, Georgia, USA
Distance from station: SW 19mi, 31km
Updated: Wed, 12-Jun-2024 7:53pm EDT
Clear
Clear
 Wind from E
Wind: E 6 km/h
Temperature: 79°F , 26°C
Barometer: 29.94 inHg , 1013.9 hPa
Clouds: Clear
Visibility: 16 km
2024/06/12 23:53 KAGS 122353Z 09003KT 10SM CLR 26/ A2994 RMK AO2 SLP136 T0256 10317 20256 53003 $
KBNL - Barnwell, South Carolina, USA
Distance from station: SE 30mi, 48km
Updated: Wed, 12-Jun-2024 8:35pm EDT
Partly cloudy
Partly cloudy
 Wind from SSE
Wind: SSE 11 km/h
Temperature: 82°F , 28°C
Heat Index: 84°F , 29°C
Dew Point: 66°F , 19°C
Humidity: 58%
Barometer: 29.97 inHg , 1014.9 hPa
Clouds: Partly cloudy
Visibility: 16 km
Cloud details: Few Clouds 6000 ft
Few Clouds 7500 ft
Partly cloudy 8500 ft
2024/06/13 00:35 KBNL 130035Z AUTO 15006KT 10SM FEW060 FEW075 SCT085 28/19 A2997 RMK AO2
 
KXNO - North Aux, South Carolina, USA
Distance from station: E 39mi, 63km
Updated: Wed, 12-Jun-2024 7:55pm EDT
Few Clouds
Few Clouds
 Wind from ENE
Wind: ENE 6 km/h
Temperature: 84°F , 29°C
Heat Index: 85°F , 29°C
Dew Point: 63°F , 17°C
Humidity: 48%
Barometer: 29.96 inHg , 1014.6 hPa
Clouds: Few Clouds
Visibility: 16 km
Cloud details: Few Clouds 8500 ft
2024/06/12 23:55 KXNO 122355Z AUTO 06003KT 10SM FEW085 29/17 A2996 RMK AO2 SLP145 T02910169 10327 20291 53003 $
KCAE - Columbia, South Carolina, USA
Distance from station: NE 44mi, 70km
Updated: Wed, 12-Jun-2024 7:56pm EDT
Mostly cloudy
Mostly cloudy
 Wind from ESE
Wind: ESE 13 km/h
Temperature: 84°F , 29°C
Heat Index: 85°F , 29°C
Dew Point: 63°F , 17°C
Humidity: 48%
Barometer: 29.96 inHg , 1014.6 hPa
Clouds: Mostly cloudy
Visibility: 16 km
Cloud details: Few Clouds 7000 ft
Mostly cloudy 15000 ft
2024/06/12 23:56 KCAE 122356Z 11007KT 10SM FEW070 BKN150 29/17 A2996 RMK AO2 SLP142 T02890172 10317 20289 53002
 
KHQU - Mcduffie/Thomson, Georgia, USA
Distance from station: W 45mi, 72km
Updated: Wed, 12-Jun-2024 8:15pm EDT
Clear
Clear
 Wind from ENE
Wind: ENE 7 km/h
Temperature: 82°F , 28°C
Heat Index: 84°F , 29°C
Dew Point: 64°F , 18°C
Humidity: 55%
Barometer: 29.97 inHg , 1014.9 hPa
Clouds: Clear
Visibility: 16 km
2024/06/13 00:15 KHQU 130015Z AUTO 06004KT 10SM CLR 28/18 A2997 RMK AO2 T02820181
K2J5 - Millen, Georgia, USA
Distance from station: SSW 48mi, 77km
Updated: Wed, 12-Jun-2024 8:15pm EDT
Clear
Clear
 Wind from E
Wind: E 9 km/h
Temperature: 82°F , 28°C
Heat Index: 84°F , 29°C
Dew Point: 64°F , 18°C
Humidity: 55%
Barometer: 29.96 inHg , 1014.6 hPa
Clouds: Clear
Visibility: 16 km
2024/06/13 00:15 K2J5 130015Z AUTO 09005KT 10SM CLR 28/18 A2996 RMK AO2 T02840183
 
KAQX - Allendale Cnty, South Carolina, USA
Distance from station: SE 49mi, 79km
Updated: Wed, 12-Jun-2024 8:15pm EDT
Overcast
Overcast
 Wind from SE
Wind: SE 9 km/h
Temperature: 82°F , 28°C
Heat Index: 84°F , 29°C
Dew Point: 66°F , 19°C
Humidity: 58%
Barometer: 29.96 inHg , 1014.6 hPa
Clouds: Overcast
Visibility: 16 km
Cloud details: Partly cloudy 6000 ft
Partly cloudy 7000 ft
Overcast 8000 ft
2024/06/13 00:15 KAQX 130015Z AUTO 14005KT 10SM SCT060 SCT070 OVC080 28/19 A2996 RMK AO2 TSNO
KCUB - Columbia-Owens, South Carolina, USA
Distance from station: ENE 51mi, 81km
Updated: Wed, 12-Jun-2024 7:53pm EDT
Clear
Clear
 Wind from calm
Wind: Calm
Temperature: 84°F , 29°C
Heat Index: 85°F , 29°C
Dew Point: 63°F , 17°C
Humidity: 48%
Barometer: 29.98 inHg , 1015.2 hPa
Clouds: Clear
Visibility: 16 km
2024/06/12 23:53 KCUB 122353Z AUTO 00000KT 10SM CLR 29/17 A2998 RMK AO2 SLP148 T02890167 10317 20289 53002 $
 
KOGB - Orangeburg, South Carolina, USA
Distance from station: E 52mi, 83km
Updated: Wed, 12-Jun-2024 7:53pm EDT
Clear
Clear
 Wind from varies
Wind: varies 6 km/h
Temperature: 84°F , 29°C
Heat Index: 85°F , 29°C
Dew Point: 63°F , 17°C
Humidity: 48%
Barometer: 29.97 inHg , 1014.9 hPa
Clouds: Clear
Visibility: 16 km
2024/06/12 23:53 KOGB 122353Z AUTO VRB03KT 10SM CLR 29/17 A2997 RMK AO2 SLP147 T02890172 10322 20289 53003
KEOE - Newberry, South Carolina, USA
Distance from station: N 52mi, 84km
Updated: Wed, 12-Jun-2024 8:15pm EDT
Clear
Clear
 Wind from calm
Wind: Calm
Temperature: 79°F , 26°C
Dew Point: 63°F , 17°C
Humidity: 58%
Barometer: 30.01 inHg , 1016.3 hPa
Clouds: Clear
Visibility: 16 km
2024/06/13 00:15 KEOE 130015Z AUTO 00000KT 10SM CLR 26/17 A3001 RMK AO2
 
KGRD - Greenwood, South Carolina, USA
Distance from station: NNW 53mi, 85km
Updated: Wed, 12-Jun-2024 7:56pm EDT
Clear
Clear
 Wind from calm
Wind: Calm
Temperature: 81°F , 27°C
Heat Index: 83°F , 28°C
Dew Point: 64°F , 18°C
Humidity: 58%
Barometer: 30.00 inHg , 1015.9 hPa
Clouds: Clear
Visibility: 16 km
2024/06/12 23:56 KGRD 122356Z AUTO 00000KT 10SM CLR 27/18 A3000 RMK AO2 SLP153 T02670183 10300 20267 53003
KMMT - Mcentire Ang Bas, South Carolina, USA
Distance from station: ENE 59mi, 95km
Updated: Wed, 12-Jun-2024 7:55pm EDT
Clear
Clear
 Wind from SE
Wind: SE 7 km/h
Temperature: 81°F , 27°C
Heat Index: 83°F , 28°C
Dew Point: 64°F , 18°C
Humidity: 58%
Barometer: 29.95 inHg , 1014.2 hPa
Clouds: Clear
Visibility: 16 km
2024/06/12 23:55 KMMT 122355Z 13004KT 10SM CLR 27/18 A2995 RMK AO2A SLP143 T02720182 10326 20271 53003 $
 
KFDW - Winnsboro, South Carolina, USA
Distance from station: NE 63mi, 101km
Updated: Wed, 12-Jun-2024 8:15pm EDT
Clear
Clear
 Wind from calm
Wind: Calm
Temperature: 77°F , 25°C
Dew Point: 68°F , 20°C
Humidity: 74%
Barometer: 29.99 inHg , 1015.6 hPa
Clouds: Clear
Visibility: 16 km
2024/06/13 00:15 KFDW 130015Z AUTO 00000KT 10SM CLR 25/20 A2999 RMK AO1
KIIY - Washington, Georgia, USA
Distance from station: WNW 64mi, 103km
Updated: Wed, 12-Jun-2024 8:15pm EDT
Clear
Clear
 Wind from E
Wind: E 6 km/h
Temperature: 81°F , 27°C
Heat Index: 83°F , 28°C
Dew Point: 64°F , 18°C
Humidity: 58%
Barometer: 29.98 inHg , 1015.2 hPa
Clouds: Clear
Visibility: 16 km
2024/06/13 00:15 KIIY 130015Z AUTO 08003KT 10SM CLR 27/18 A2998 RMK AO2 T02700179
 
KJYL - Sylvania, Georgia, USA
Distance from station: S 64mi, 103km
Updated: Wed, 12-Jun-2024 8:15pm EDT
Clear
Clear
 Wind from calm
Wind: Calm
Temperature: 81°F , 27°C
Heat Index: 83°F , 28°C
Dew Point: 64°F , 18°C
Humidity: 58%
Barometer: 29.97 inHg , 1014.9 hPa
Clouds: Clear
Visibility: 16 km
2024/06/13 00:15 KJYL 130015Z AUTO 00000KT 10SM CLR 27/18 A2997 RMK AO2 T02730175
KLUX - Laurens, South Carolina, USA
Distance from station: N 65mi, 105km
Updated: Wed, 12-Jun-2024 8:15pm EDT
Clear
Clear
 Wind from calm
Wind: Calm
Temperature: 79°F , 26°C
Dew Point: 64°F , 18°C
Humidity: 61%
Barometer: 30.00 inHg , 1015.9 hPa
Clouds: Clear
Visibility: 16 km
2024/06/13 00:15 KLUX 130015Z AUTO 00000KT 10SM CLR 26/18 A3000 RMK AO2
 
KEBA - Elberton Patz F, Georgia, USA
Distance from station: WNW 72mi, 116km
Updated: Wed, 12-Jun-2024 8:15pm EDT
Clear
Clear
 Wind from calm
Wind: Calm
Temperature: 79°F , 26°C
Dew Point: 68°F , 20°C
Humidity: 70%
Barometer: 29.98 inHg , 1015.2 hPa
Clouds: Clear
Visibility: 16 km
2024/06/13 00:15 KEBA 130015Z AUTO 00000KT 10SM CLR 26/20 A2998 RMK AO2 T02590195
KSBO - Swainsboro, Georgia, USA
Distance from station: SSW 75mi, 121km
Updated: Wed, 27-Mar-2024 8:15am EDT
NOT Current
Light rain, Overcast
Light rain, Overcast
 Wind from S
Wind: S 9 km/h
Temperature: 64°F , 18°C
Dew Point: 63°F , 17°C
Humidity: 94%
Barometer: 29.93 inHg , 1013.5 hPa
Summary: Light rain
Clouds: Overcast
Visibility: 16 km
Cloud details: Partly cloudy 2800 ft
Mostly cloudy 7500 ft
Overcast 11000 ft
2024/03/27 12:15 KSBO 271215Z AUTO 17005KT 10SM -RA SCT028 BKN075 OVC110 18/17 A2993 RMK AO2 LTG DSNT SW